Time;durP1;ratioP1;P1;durP2;ratioP2;P2;SDS_P1;SDS_P2;PMS_P1;PMS_P2;Temp;Humidity;BMP_temperature;BMP_pressure;BME280_temperature;BME280_humidity;BME280_pressure;Samples;Min_cycle;Max_cycle;Signal;HPM_P1;HPM_P2
2022/04/23 00:01:49;;;;;;;4.13;2.57;;;;;;;;;;21020287;28;20266;-69
2022/04/23 00:11:55;;;;;;;3.53;2.77;;;;;;;;;;21020322;28;20611;-69
2022/04/23 00:21:56;;;;;;;5.60;3.10;;;;;;;;;;21015769;28;20224;-69
2022/04/23 00:31:59;;;;;;;4.07;2.70;;;;;;;;;;21034455;28;20209;-69
2022/04/23 00:42:08;;;;;;;5.97;3.00;;;;;;;;;;20965361;28;20204;-69
2022/04/23 00:52:10;;;;;;;3.03;2.47;;;;;;;;;;20976946;28;20243;-69
2022/04/23 01:02:12;;;;;;;7.60;2.97;;;;;;;;;;21023352;28;20283;-69
2022/04/23 01:12:16;;;;;;;3.23;2.43;;;16.10;99.90;;;;;;21007958;28;20695;-69
2022/04/23 01:22:18;;;;;;;4.20;3.20;;;;;;;;;;20823724;22;20703;-84
2022/04/23 01:32:20;;;;;;;3.57;2.83;;;;;;;;;;20896458;28;20296;-85
2022/04/23 01:42:22;;;;;;;3.47;2.77;;;;;;;;;;20865252;28;20315;-85
2022/04/23 01:52:23;;;;;;;4.10;2.70;;;;;;;;;;20882070;28;20214;-85
2022/04/23 02:02:26;;;;;;;4.20;2.70;;;;;;;;;;20909798;28;20237;-85
2022/04/23 02:12:28;;;;;;;4.10;3.07;;;;;;;;;;20963176;28;20209;-86
2022/04/23 02:22:30;;;;;;;4.10;2.80;;;;;;;;;;20961562;28;20772;-85
2022/04/23 02:32:32;;;;;;;3.47;2.63;;;;;;;;;;20944414;28;20217;-85
2022/04/23 02:42:33;;;;;;;3.27;2.10;;;;;;;;;;20945036;28;20225;-84
2022/04/23 02:52:35;;;;;;;3.70;2.40;;;;;;;;;;20960786;28;20602;-85
2022/04/23 03:02:37;;;;;;;4.13;2.63;;;;;;;;;;20943068;28;20582;-83
2022/04/23 03:12:40;;;;;;;3.70;2.70;;;;;;;;;;20977024;28;20231;-84
2022/04/23 03:22:42;;;;;;;3.60;2.40;;;;;;;;;;20925394;28;20229;-84
2022/04/23 03:32:44;;;;;;;5.17;2.43;;;;;;;;;;20956894;28;20217;-83
2022/04/23 03:42:48;;;;;;;6.03;2.77;;;;;;;;;;20958857;28;20229;-86
2022/04/23 03:52:50;;;;;;;3.43;2.57;;;;;;;;;;20947315;28;20235;-84
2022/04/23 04:02:54;;;;;;;4.43;2.57;;;;;;;;;;20973555;28;20233;-84
2022/04/23 04:12:56;;;;;;;3.60;2.67;;;;;;;;;;20970148;28;20625;-86
2022/04/23 04:22:58;;;;;;;4.90;2.47;;;;;;;;;;20975191;28;20233;-85
2022/04/23 04:33:00;;;;;;;5.40;2.73;;;;;;;;;;20973945;28;20277;-83
2022/04/23 04:43:01;;;;;;;3.43;2.57;;;;;;;;;;20955473;28;20318;-84
2022/04/23 04:53:03;;;;;;;4.17;2.60;;;;;;;;;;20988094;28;20589;-83
2022/04/23 05:03:05;;;;;;;4.00;2.63;;;;;;;;;;20951887;28;20267;-83
2022/04/23 05:13:06;;;;;;;5.63;3.17;;;;;;;;;;20862262;28;20218;-83
2022/04/23 05:23:08;;;;;;;4.80;3.03;;;;;;;;;;20869304;28;20760;-83
2022/04/23 05:33:10;;;;;;;4.73;2.73;;;;;;;;;;20978729;28;20236;-83
2022/04/23 05:43:11;;;;;;;7.07;3.03;;;;;;;;;;20950071;28;20319;-82
2022/04/23 05:53:13;;;;;;;4.07;2.90;;;;;;;;;;20982853;28;20210;-82
2022/04/23 06:03:15;;;;;;;9.37;2.90;;;;;;;;;;20998816;28;20757;-82
2022/04/23 06:13:17;;;;;;;3.53;2.50;;;;;;;;;;20981604;28;20267;-82
2022/04/23 06:23:19;;;;;;;3.80;2.73;;;;;;;;;;20963369;28;20244;-82
2022/04/23 06:33:21;;;;;;;5.60;3.50;;;;;;;;;;20892148;28;20268;-82
2022/04/23 06:43:23;;;;;;;3.37;2.40;;;;;;;;;;20894903;28;20230;-82
2022/04/23 06:53:26;;;;;;;3.47;2.33;;;;;;;;;;20913033;28;20253;-82
2022/04/23 07:03:27;;;;;;;2.20;1.53;;;;;;;;;;20877720;28;20221;-80
2022/04/23 07:13:29;;;;;;;3.87;2.50;;;;;;;;;;20932821;28;20205;-81
2022/04/23 07:44:12;;;;;;;2.03;1.20;;;;;;;;;;20909050;28;20284;-81
2022/04/23 07:54:14;;;;;;;1.67;1.00;;;14.70;99.90;;;;;;20908511;28;20218;-81
2022/04/23 08:04:16;;;;;;;2.07;1.13;;;;;;;;;;20966298;28;20251;-81
2022/04/23 08:14:18;;;;;;;2.00;1.30;;;;;;;;;;20872084;28;20214;-82
2022/04/23 08:24:20;;;;;;;1.47;1.10;;;;;;;;;;20891666;28;20229;-81
2022/04/23 08:34:23;;;;;;;2.00;1.17;;;;;;;;;;20872396;28;20264;-81
2022/04/23 08:44:25;;;;;;;1.60;0.97;;;;;;;;;;20912247;28;20214;-81
2022/04/23 08:54:28;;;;;;;4.50;1.30;;;;;;;;;;20906515;28;20218;-80
2022/04/23 09:04:30;;;;;;;1.40;1.00;;;;;;;;;;20933470;28;20247;-81
2022/04/23 09:14:33;;;;;;;1.83;1.00;;;;;;;;;;20978051;28;20304;-82
2022/04/23 09:24:42;;;;;;;1.53;0.90;;;;;;;;;;20923117;28;20230;-81
2022/04/23 09:34:44;;;;;;;0.90;0.60;;;;;;;;;;20913984;28;20276;-80
2022/04/23 09:44:47;;;;;;;1.70;0.90;;;;;;;;;;20900115;28;20241;-82
2022/04/23 09:54:49;;;;;;;1.10;0.80;;;;;;;;;;20899904;28;20340;-80
2022/04/23 10:04:54;;;;;;;1.13;0.87;;;;;;;;;;20894850;28;20233;-81
2022/04/23 10:14:57;;;;;;;1.40;0.80;;;;;;;;;;20865851;28;20206;-81
2022/04/23 10:25:08;;;;;;;1.20;0.70;;;;;;;;;;20891185;28;20218;-82
2022/04/23 10:35:19;;;;;;;1.47;0.90;;;;;;;;;;20841883;28;20272;-82
2022/04/23 10:45:31;;;;;;;1.10;0.80;;;;;;;;;;20888143;28;20224;-82
2022/04/23 10:55:33;;;;;;;1.17;0.60;;;;;;;;;;20947284;28;20271;-81
2022/04/23 11:16:06;;;;;;;0.50;0.50;;;;;;;;;;20958891;28;20476;-81
2022/04/23 11:26:11;;;;;;;1.47;0.80;;;16.40;99.90;;;;;;20881196;28;20238;-82
2022/04/23 11:36:14;;;;;;;0.67;0.50;;;;;;;;;;20876083;28;20244;-80
2022/04/23 11:46:17;;;;;;;1.23;0.83;;;;;;;;;;20909614;28;20237;-80
2022/04/23 11:56:22;;;;;;;1.20;0.77;;;;;;;;;;20887682;28;20214;-82
2022/04/23 12:06:24;;;;;;;1.00;0.73;;;;;;;;;;20902292;28;20695;-80
2022/04/23 12:16:35;;;;;;;0.97;0.53;;;16.70;99.90;;;;;;20906404;28;20230;-82
2022/04/23 12:26:39;;;;;;;1.37;0.73;;;;;;;;;;20895033;28;20237;-81
2022/04/23 12:47:09;;;;;;;1.00;0.60;;;16.50;99.90;;;;;;20893388;28;20221;-82
2022/04/23 12:57:15;;;;;;;1.67;0.70;;;16.50;99.90;;;;;;20872237;28;20675;-80
2022/04/23 13:17:39;;;;;;;1.10;0.80;;;;;;;;;;20920199;28;20287;-80
2022/04/23 13:27:42;;;;;;;1.63;1.17;;;;;;;;;;20929439;28;20241;-81
2022/04/23 13:37:44;;;;;;;1.60;1.00;;;;;;;;;;20899903;28;20214;-82
2022/04/23 13:47:50;;;;;;;1.10;0.90;;;;;;;;;;20909001;28;20277;-81
2022/04/23 13:57:52;;;;;;;0.87;0.67;;;;;;;;;;20993706;28;20221;-80
2022/04/23 14:18:15;;;;;;;1.73;1.00;;;;;;;;;;20952333;28;20225;-81
2022/04/23 14:28:17;;;;;;;1.87;0.93;;;;;;;;;;20892517;28;20233;-81
2022/04/23 14:38:19;;;;;;;2.57;1.20;;;;;;;;;;20856533;28;20747;-81
2022/04/23 14:48:20;;;;;;;1.90;1.10;;;;;;;;;;20855458;28;20221;-81
2022/04/23 14:58:22;;;;;;;2.37;1.30;;;;;;;;;;20906206;28;20244;-81
2022/04/23 15:08:24;;;;;;;1.80;1.10;;;;;;;;;;20924018;28;20275;-83
2022/04/23 15:18:26;;;;;;;1.50;1.10;;;;;;;;;;20915512;28;20237;-83
2022/04/23 15:28:29;;;;;;;1.73;1.27;;;;;;;;;;20947248;28;20870;-82
2022/04/23 15:38:30;;;;;;;2.43;1.50;;;;;;;;;;20939616;28;20205;-82
2022/04/23 15:48:32;;;;;;;2.40;1.60;;;;;;;;;;20953680;28;20233;-81
2022/04/23 15:58:34;;;;;;;2.60;1.90;;;;;;;;;;20892943;28;20218;-81
2022/04/23 16:08:38;;;;;;;2.43;1.80;;;;;;;;;;20896801;28;20229;-82
2022/04/23 16:18:40;;;;;;;3.00;2.10;;;;;;;;;;20916718;28;20609;-82
2022/04/23 16:28:42;;;;;;;3.23;2.20;;;;;;;;;;20810099;28;20265;-81
2022/04/23 16:49:07;;;;;;;3.17;2.10;;;;;;;;;;20819541;28;20226;-81
2022/04/23 16:59:09;;;;;;;3.23;2.20;;;;;;;;;;20786463;28;20272;-80
2022/04/23 17:09:10;;;;;;;3.37;2.20;;;;;;;;;;20881925;28;20261;-81
2022/04/23 17:19:12;;;;;;;3.00;2.23;;;16.70;99.90;;;;;;20961365;28;20266;-82
2022/04/23 17:29:14;;;;;;;3.23;2.10;;;;;;;;;;20947708;28;20237;-80
2022/04/23 17:39:17;;;;;;;3.80;2.07;;;;;;;;;;20864903;28;20271;-81
2022/04/23 17:49:21;;;;;;;3.60;2.53;;;;;;;;;;20966657;28;20213;-81
2022/04/23 17:59:23;;;;;;;3.77;2.50;;;;;;;;;;20966500;28;20675;-82
2022/04/23 18:09:24;;;;;;;4.53;2.37;;;;;;;;;;20865851;28;20238;-81
2022/04/23 18:19:29;;;;;;;3.53;2.53;;;;;;;;;;20863420;28;20230;-81
2022/04/23 18:29:38;;;;;;;5.70;2.53;;;;;;;;;;20937922;28;20295;-80
2022/04/23 18:39:39;;;;;;;8.20;4.67;;;;;;;;;;20938712;28;20209;-81
2022/04/23 18:49:41;;;;;;;4.17;3.00;;;;;;;;;;20954486;28;20225;-83
2022/04/23 18:59:44;;;;;;;3.77;2.70;;;;;;;;;;20937802;28;20201;-81
2022/04/23 19:09:46;;;;;;;3.43;2.37;;;;;;;;;;20955731;28;20225;-83
2022/04/23 19:20:10;;;;;;;4.77;2.83;;;;;;;;;;20957058;28;20225;-84
2022/04/23 19:30:46;;;;;;;3.47;2.57;;;;;;;;;;20953495;28;20229;-84
2022/04/23 19:41:15;;;;;;;4.03;2.97;;;;;;;;;;20898109;28;20221;-84
2022/04/23 19:51:22;;;;;;;4.30;2.90;;;;;;;;;;20935225;28;20221;-84
2022/04/23 20:01:29;;;;;;;3.97;2.67;;;;;;;;;;20876472;28;20244;-84
2022/04/23 20:11:47;;;;;;;4.50;2.60;;;;;;;;;;20888402;28;20261;-83
2022/04/23 20:22:34;;;;;;;3.50;2.27;;;;;;;;;;20820373;28;20288;-84
2022/04/23 20:32:47;;;;;;;3.60;2.50;;;;;;;;;;20899734;28;20634;-83
2022/04/23 20:42:48;;;;;;;3.33;2.13;;;;;;;;;;20884772;28;20699;-81
2022/04/23 21:03:11;;;;;;;3.77;2.57;;;;;;;;;;20878988;28;20264;-81
2022/04/23 21:13:13;;;;;;;3.03;2.13;;;;;;;;;;20895769;28;20241;-82
2022/04/23 21:23:17;;;;;;;3.70;2.77;;;;;;;;;;20911789;28;20221;-83
2022/04/23 21:33:19;;;;;;;3.77;2.50;;;;;;;;;;20879429;28;20214;-82
2022/04/23 21:53:42;;;;;;;4.40;2.80;;;;;;;;;;20894494;28;20268;-82
2022/04/23 22:03:44;;;;;;;4.10;2.63;;;;;;;;;;20909677;28;20691;-81
2022/04/23 22:13:46;;;;;;;4.20;2.57;;;;;;;;;;20897645;28;20210;-82
2022/04/23 22:23:49;;;;;;;5.27;2.70;;;;;;;;;;20970389;28;20216;-83
2022/04/23 22:33:51;;;;;;;3.23;2.40;;;;;;;;;;20909437;28;20209;-83
2022/04/23 22:43:54;;;;;;;4.00;2.47;;;;;;;;;;20879496;28;20226;-82
2022/04/23 22:53:56;;;;;;;3.53;2.37;;;;;;;;;;20877664;28;20205;-83
2022/04/23 23:03:57;;;;;;;3.07;2.17;;;;;;;;;;20918616;28;20222;-83
2022/04/23 23:13:59;;;;;;;3.03;2.27;;;;;;;;;;20860874;28;20236;-83
2022/04/23 23:24:01;;;;;;;2.80;1.90;;;;;;;;;;20859514;28;20296;-83
2022/04/23 23:34:03;;;;;;;3.37;2.07;;;;;;;;;;20876053;28;20217;-83
2022/04/23 23:44:07;;;;;;;2.77;2.00;;;;;;;;;;20859837;28;20275;-84
2022/04/23 23:54:09;;;;;;;3.43;2.37;;;;;;;;;;20859156;28;20213;-83
